GMMW

Nador International Airport

Nador, Morocco
METAR GMMW 211300Z 04010KT 350V080 CAVOK 34/10 Q1013 NOSIG
Observed Flight Rules
Jul-21 @ 13:00 UTC (44 minutes ago) Visual Flight Rules
Wind Visibility Clouds
40° at 10 knots 10,000+ meters
  • Clear skies
Temperatures Readings
Current 34°C / 93°F
Dewpoint 10°C / 50°F
Humidity 23%
Altimeter 29.91" Hg
Pressure 1013 hPa
Elevation 175
METAR GMMW 211300Z 04010KT 350V080 CAVOK 34/10 Q1013 NOSIG
Observed Flight Rules
Jul-21 @ 13:00 UTC
(44 minutes ago)
VFR
Wind Visibility
40° at 10 knots 10,000+ meters
Clouds
  • Clear skies
Temperature Dewpoint
34°C / 93°F 10°C / 50°F
Humidity Altimeter Pressure
23% 29.91" Hg 1013 hPa